Time;durP1;ratioP1;P1;durP2;ratioP2;P2;SDS_P1;SDS_P2;PMS_P1;PMS_P2;Temp;Humidity;BMP_temperature;BMP_pressure;BME280_temperature;BME280_humidity;BME280_pressure;Samples;Min_cycle;Max_cycle;Signal;HPM_P1;HPM_P2
2021/11/05 00:01:39;;;;;;;21.42;5.07;;;;;;;;;;4989600;28;20511;-66
2021/11/05 00:04:05;;;;;;;14.30;5.25;;;;;;;;;;4990259;28;20038;-65
2021/11/05 00:06:31;;;;;;;15.43;4.03;;;;;;;;;;4990060;28;20034;-65
2021/11/05 00:08:57;;;;;;;11.25;4.22;;;;;;;;;;4986816;28;20029;-65
2021/11/05 00:11:23;;;;;;;9.95;3.50;;;;;;;;;;4989081;28;20121;-65
2021/11/05 00:13:49;;;;;;;5.00;3.78;;;;;;;;;;4989240;28;20041;-65
2021/11/05 00:16:15;;;;;;;13.23;3.80;;;;;;;;;;4988091;28;20117;-65
2021/11/05 00:18:41;;;;;;;10.32;3.13;;;;;;;;;;4987615;28;20031;-65
2021/11/05 00:21:07;;;;;;;16.35;4.65;;;;;;;;;;4990255;28;20018;-65
2021/11/05 00:23:33;;;;;;;11.90;3.45;;;;;;;;;;4990533;28;20038;-65
2021/11/05 00:25:59;;;;;;;7.75;3.22;;;;;;;;;;4993294;28;20030;-66
2021/11/05 00:28:26;;;;;;;17.55;4.03;;;;;;;;;;4989787;28;20462;-65
2021/11/05 00:30:52;;;;;;;12.82;3.22;;;;;;;;;;4994145;28;20034;-65
2021/11/05 00:33:18;;;;;;;10.57;3.42;;;;;;;;;;4996027;28;20109;-65
2021/11/05 00:35:44;;;;;;;10.07;3.05;;;;;;;;;;4985222;28;20047;-65
2021/11/05 00:38:10;;;;;;;6.72;2.78;;;;;;;;;;4990821;28;20030;-65
2021/11/05 00:40:36;;;;;;;10.07;2.90;;;;;;;;;;4992672;28;20041;-66
2021/11/05 00:43:02;;;;;;;11.00;4.30;;;;;;;;;;4992871;28;20057;-65
2021/11/05 00:45:28;;;;;;;9.48;3.60;;;;;;;;;;4992662;28;20407;-65
2021/11/05 00:47:54;;;;;;;9.57;2.92;;;;;;;;;;4986229;28;20042;-66
2021/11/05 00:50:20;;;;;;;9.73;3.20;;;;;;;;;;4990619;28;20109;-65
2021/11/05 00:52:46;;;;;;;11.25;3.25;;;;;;;;;;4988570;28;20041;-65
2021/11/05 00:55:12;;;;;;;5.55;2.83;;;;;;;;;;4989412;28;20491;-65
2021/11/05 00:57:39;;;;;;;5.53;2.70;;;;;;;;;;4989161;28;20037;-65
2021/11/05 01:00:07;;;;;;;7.30;3.58;;;;;;;;;;4988149;28;20011;-65
2021/11/05 01:02:33;;;;;;;6.55;2.70;;;;;;;;;;4990374;28;20026;-65
2021/11/05 01:04:59;;;;;;;8.57;3.10;;;;;;;;;;4989025;28;20273;-65
2021/11/05 01:07:25;;;;;;;15.93;3.35;;;;;;;;;;4990046;28;20431;-66
2021/11/05 01:09:51;;;;;;;12.90;3.20;;;;;;;;;;5001309;28;20506;-66
2021/11/05 01:12:19;;;;;;;10.10;3.53;;;;;;;;;;4990374;28;20438;-66
2021/11/05 01:14:45;;;;;;;9.18;2.42;;;;;;;;;;4983657;28;20043;-66
2021/11/05 01:17:11;;;;;;;10.07;3.28;;;;;;;;;;4990262;28;20021;-66
2021/11/05 01:19:37;;;;;;;11.25;2.58;;;;;;;;;;4985689;28;20018;-66
2021/11/05 01:22:03;;;;;;;17.80;3.20;;;;;;;;;;4989831;28;20030;-66
2021/11/05 01:24:29;;;;;;;7.32;2.40;;;;;;;;;;4989594;28;20276;-66
2021/11/05 01:26:55;;;;;;;10.15;2.95;;;;;;;;;;4989091;28;20396;-66
2021/11/05 01:29:22;;;;;;;7.50;3.10;;;;;;;;;;4986606;28;20096;-66
2021/11/05 01:31:48;;;;;;;14.77;3.78;;;;;;;;;;4987552;28;20502;-66
2021/11/05 01:34:14;;;;;;;15.40;3.80;;;;;;;;;;4988715;28;20018;-66
2021/11/05 01:36:40;;;;;;;23.58;3.58;;;;;;;;;;4986815;28;20043;-66
2021/11/05 01:39:07;;;;;;;20.33;4.10;;;;;;;;;;4990130;28;20022;-66
2021/11/05 01:41:33;;;;;;;21.27;3.97;;;;;;;;;;4991831;28;20026;-66
2021/11/05 01:43:59;;;;;;;28.55;4.50;;;;;;;;;;4983991;28;20046;-66
2021/11/05 01:46:25;;;;;;;20.95;3.47;;;;;;;;;;4991278;28;20092;-66
2021/11/05 01:48:51;;;;;;;18.73;3.88;;;;;;;;;;4988985;28;20034;-66
2021/11/05 01:51:17;;;;;;;21.83;3.97;;;;;;;;;;4986480;28;20050;-66
2021/11/05 01:53:43;;;;;;;18.67;4.45;;;;;;;;;;4988672;28;20026;-66
2021/11/05 01:56:09;;;;;;;28.20;5.20;;;;;;;;;;4992209;28;20422;-66
2021/11/05 01:58:35;;;;;;;23.55;4.50;;;;;;;;;;4988839;28;20034;-66
2021/11/05 02:01:02;;;;;;;24.73;5.68;;;;;;;;;;4989811;28;20402;-65
2021/11/05 02:03:28;;;;;;;24.85;4.00;;;;;;;;;;4998566;28;20041;-66
2021/11/05 02:05:55;;;;;;;20.08;5.40;;;;;;;;;;4991905;28;20037;-66
2021/11/05 02:08:22;;;;;;;25.52;4.85;;;;;;;;;;4988837;28;20114;-66
2021/11/05 02:10:50;;;;;;;21.75;4.28;;;;;;;;;;4982185;28;20039;-65
2021/11/05 02:13:17;;;;;;;17.98;3.88;;;;;;;;;;4990940;28;20057;-66
2021/11/05 02:15:43;;;;;;;14.70;4.40;;;;;;;;;;4988537;28;20459;-66
2021/11/05 02:18:09;;;;;;;30.38;4.82;;;;;;;;;;4987459;28;20014;-66
2021/11/05 02:20:36;;;;;;;23.38;5.32;;;;;;;;;;4991283;28;20031;-66
2021/11/05 02:23:04;;;;;;;21.92;4.97;;;;;;;;;;4989696;28;20022;-66
2021/11/05 02:25:30;;;;;;;20.83;4.05;;;;;;;;;;4991199;28;20263;-66
2021/11/05 02:27:57;;;;;;;18.08;4.15;;;;;;;;;;4987928;28;20029;-66
2021/11/05 02:30:23;;;;;;;16.52;4.60;;;;;;;;;;4990453;28;20026;-65
2021/11/05 02:32:49;;;;;;;20.80;4.32;;;;;;;;;;4989949;28;20022;-66
2021/11/05 02:35:16;;;;;;;22.70;4.97;;;;;;;;;;4990888;28;20134;-66
2021/11/05 02:37:43;;;;;;;17.50;4.65;;;;;;;;;;4990054;28;20173;-66
2021/11/05 02:40:10;;;;;;;21.10;5.28;;;;;;;;;;4987725;28;20029;-66
2021/11/05 02:42:36;;;;;;;18.20;4.90;;;;;;;;;;4990520;28;20034;-66
2021/11/05 02:45:03;;;;;;;19.20;5.03;;;;;;;;;;4985084;28;20092;-65
2021/11/05 02:47:30;;;;;;;19.10;6.13;;;;;;;;;;4990273;28;20054;-66
2021/11/05 02:49:58;;;;;;;13.52;4.57;;;;;;;;;;4983536;28;20077;-66
2021/11/05 02:52:24;;;;;;;15.73;4.65;;;;;;;;;;4986456;28;20085;-66
2021/11/05 02:54:50;;;;;;;20.80;5.10;;;;;;;;;;4990015;28;20022;-66
2021/11/05 02:57:16;;;;;;;16.80;4.75;;;;;;;;;;4989469;28;20077;-66
2021/11/05 02:59:42;;;;;;;18.95;4.97;;;;;;;;;;4980548;28;20034;-66
2021/11/05 03:02:09;;;;;;;12.38;4.40;;;;;;;;;;4991377;28;20057;-65
2021/11/05 03:04:36;;;;;;;21.85;4.50;;;;;;;;;;4989782;28;20031;-66
2021/11/05 03:07:06;;;;;;;20.45;5.30;;;;;;;;;;4990104;28;20029;-66
2021/11/05 03:09:33;;;;;;;13.23;5.35;;;;;;;;;;4993614;28;20276;-66
2021/11/05 03:12:00;;;;;;;18.92;5.60;;;;;;;;;;4991094;28;20038;-65
2021/11/05 03:14:26;;;;;;;15.95;5.38;;;;;;;;;;4987350;28;20031;-66
2021/11/05 03:16:53;;;;;;;18.73;6.57;;;;;;;;;;4978123;28;20038;-66
2021/11/05 03:19:19;;;;;;;19.33;5.38;;;;;;;;;;4986960;28;20027;-66
2021/11/05 03:21:45;;;;;;;16.75;5.93;;;;;;;;;;4988360;28;20030;-66
2021/11/05 03:24:12;;;;;;;18.40;5.43;;;;;;;;;;4990735;28;20026;-65
2021/11/05 03:26:38;;;;;;;12.43;5.25;;;;;;;;;;4982454;28;20049;-66
2021/11/05 03:29:04;;;;;;;19.35;4.97;;;;;;;;;;4986215;28;20032;-66
2021/11/05 03:31:31;;;;;;;23.13;4.53;;;;;;;;;;4990302;28;20038;-66
2021/11/05 03:33:57;;;;;;;12.55;4.47;;;;;;;;;;4990443;28;20027;-66
2021/11/05 03:36:24;;;;;;;14.18;5.35;;;;;;;;;;4985669;28;20073;-65
2021/11/05 03:38:50;;;;;;;11.27;4.28;;;;;;;;;;4987793;28;20227;-65
2021/11/05 03:41:16;;;;;;;14.85;4.35;;;;;;;;;;4982072;28;20018;-66
2021/11/05 03:43:42;;;;;;;18.60;5.65;;;;;;;;;;4988240;28;20077;-66
2021/11/05 03:46:08;;;;;;;18.95;5.05;;;;;;;;;;4989330;28;20030;-66
2021/11/05 03:48:38;;;;;;;27.58;7.57;;;;;;;;;;4986137;28;20380;-66
2021/11/05 03:51:04;;;;;;;11.68;4.63;;;;;;;;;;4990679;28;20072;-66
2021/11/05 03:53:30;;;;;;;24.45;5.25;;;;;;;;;;4990588;28;20415;-66
2021/11/05 03:55:57;;;;;;;18.08;4.88;;;;;;;;;;4987676;28;20026;-66
2021/11/05 03:58:23;;;;;;;10.82;4.50;;;;;;;;;;4984674;28;20121;-66
2021/11/05 04:00:49;;;;;;;11.50;4.18;;;;;;;;;;4987278;28;20031;-66
2021/11/05 04:03:15;;;;;;;14.05;3.75;;;;;;;;;;4994370;28;20022;-66
2021/11/05 04:05:41;;;;;;;14.35;3.70;;;;;;;;;;4992663;28;20026;-66
2021/11/05 04:08:07;;;;;;;15.13;5.10;;;;;;;;;;4991160;28;20282;-66
2021/11/05 04:10:33;;;;;;;11.90;4.10;;;;;;;;;;4994495;28;20026;-65
2021/11/05 04:13:01;;;;;;;14.20;4.60;;;;;;;;;;4993448;28;20018;-66
2021/11/05 04:15:27;;;;;;;9.57;4.20;;;;;;;;;;4993109;28;20495;-65
2021/11/05 04:17:53;;;;;;;11.90;4.38;;;;;;;;;;4991568;28;20069;-65
2021/11/05 04:20:20;;;;;;;14.57;4.35;;;;;;;;;;4995568;28;20451;-66
2021/11/05 04:22:46;;;;;;;15.60;4.20;;;;;;;;;;4996421;28;20034;-66
2021/11/05 04:25:12;;;;;;;10.93;4.95;;;;;;;;;;4994116;28;20019;-66
2021/11/05 04:27:38;;;;;;;7.63;4.40;;;;;;;;;;4992652;28;20053;-66
2021/11/05 04:30:05;;;;;;;9.73;4.30;;;;;;;;;;4991145;28;20027;-66
2021/11/05 04:32:32;;;;;;;5.65;3.83;;;;;;;;;;4997453;28;20058;-66
2021/11/05 04:34:58;;;;;;;10.20;3.85;;;;;;;;;;4991494;28;20026;-66
2021/11/05 04:37:24;;;;;;;13.05;3.85;;;;;;;;;;4992548;28;20054;-66
2021/11/05 04:39:50;;;;;;;14.48;3.90;;;;;;;;;;4990014;28;20030;-66
2021/11/05 04:42:16;;;;;;;11.40;4.30;;;;;;;;;;4988144;28;20023;-66
2021/11/05 04:44:42;;;;;;;7.97;3.50;;;;;;;;;;5004321;28;20495;-66
2021/11/05 04:47:08;;;;;;;18.90;4.07;;;;;;;;;;4992800;28;20038;-66
2021/11/05 04:49:34;;;;;;;11.90;3.40;;;;;;;;;;4989390;28;20081;-66
2021/11/05 04:52:00;;;;;;;9.30;3.35;;;;;;;;;;4993597;28;20034;-66
2021/11/05 04:54:26;;;;;;;10.55;3.55;;;;;;;;;;4992194;28;20038;-66
2021/11/05 04:56:52;;;;;;;13.88;3.97;;;;;;;;;;4992033;28;20026;-66
2021/11/05 04:59:19;;;;;;;17.45;3.80;;;;;;;;;;4984772;28;20037;-66
2021/11/05 05:01:46;;;;;;;9.40;3.53;;;;;;;;;;4989919;28;20018;-66
2021/11/05 05:04:12;;;;;;;10.18;3.90;;;;;;;;;;4992450;28;20034;-66
2021/11/05 05:06:38;;;;;;;11.57;3.85;;;;;;;;;;4992558;28;20025;-66
2021/11/05 05:09:04;;;;;;;10.40;3.70;;;;;;;;;;4990057;28;20038;-66
2021/11/05 05:11:31;;;;;;;15.55;3.85;;;;;;;;;;4988438;28;20038;-66
2021/11/05 05:13:57;;;;;;;9.38;3.28;;;;;;;;;;4988379;28;20072;-65
2021/11/05 05:16:23;;;;;;;16.75;4.60;;;;;;;;;;4991863;28;20396;-66
2021/11/05 05:18:49;;;;;;;15.30;4.00;;;;;;;;;;4989882;28;20117;-66
2021/11/05 05:21:16;;;;;;;12.82;4.32;;;;;;;;;;4988354;28;20438;-66
2021/11/05 05:23:42;;;;;;;15.70;4.55;;;;;;;;;;4992496;28;20030;-66
2021/11/05 05:26:08;;;;;;;16.75;4.38;;;;;;;;;;4986617;28;20038;-66
2021/11/05 05:28:35;;;;;;;14.57;3.70;;;;;;;;;;4985196;28;20109;-66
2021/11/05 05:31:03;;;;;;;15.63;4.30;;;;;;;;;;4992306;28;20033;-66
2021/11/05 05:33:30;;;;;;;16.98;4.85;;;;;;;;;;4997591;28;20577;-66
2021/11/05 05:35:56;;;;;;;11.88;4.00;;;;;;;;;;4993113;28;20070;-65
2021/11/05 05:38:22;;;;;;;11.82;5.72;;;;;;;;;;4991677;28;20026;-66
2021/11/05 05:40:48;;;;;;;10.75;3.97;;;;;;;;;;4988686;28;20034;-66
2021/11/05 05:43:14;;;;;;;18.48;3.97;;;;;;;;;;4997187;28;20018;-66
2021/11/05 05:45:40;;;;;;;18.00;4.80;;;;;;;;;;4986653;28;20507;-66
2021/11/05 05:48:06;;;;;;;15.52;4.45;;;;;;;;;;4987333;28;20088;-65
2021/11/05 05:50:32;;;;;;;15.02;4.40;;;;;;;;;;4986685;28;20026;-66
2021/11/05 05:52:58;;;;;;;12.25;3.40;;;;;;;;;;4985003;28;20360;-66
2021/11/05 05:55:25;;;;;;;12.20;4.15;;;;;;;;;;4990704;28;20073;-65
2021/11/05 06:00:29;;;;;;;12.73;4.22;;;;;;;;;;4531927;23;20058;-65
2021/11/05 06:02:55;;;;;;;9.70;4.03;;;;;;;;;;4972733;28;20532;-65
2021/11/05 06:05:21;;;;;;;11.35;3.95;;;;;;;;;;4968199;28;20092;-65
2021/11/05 06:07:47;;;;;;;12.90;3.67;;;;;;;;;;4968656;28;20070;-66
2021/11/05 06:10:13;;;;;;;13.13;3.60;;;;;;;;;;4970055;28;20512;-65
2021/11/05 06:12:39;;;;;;;15.52;4.50;;;;;;;;;;4970594;28;20031;-65
2021/11/05 06:15:06;;;;;;;16.73;4.40;;;;;;;;;;4967931;28;20025;-66
2021/11/05 06:17:33;;;;;;;18.05;4.50;;;;;;;;;;4966923;28;20105;-65
2021/11/05 06:19:59;;;;;;;14.65;4.38;;;;;;;;;;4969237;28;20097;-65
2021/11/05 06:22:25;;;;;;;13.23;4.28;;;;;;;;;;4968085;28;20501;-65
2021/11/05 06:24:52;;;;;;;17.38;4.50;;;;;;;;;;4973374;28;20033;-66
2021/11/05 06:27:19;;;;;;;15.13;4.40;;;;;;;;;;4962418;28;20073;-66
2021/11/05 06:29:45;;;;;;;15.65;5.03;;;;;;;;;;4961813;28;20540;-65
2021/11/05 06:32:11;;;;;;;23.67;4.50;;;;;;;;;;4968645;28;20026;-66
2021/11/05 06:34:37;;;;;;;15.50;4.45;;;;;;;;;;4970276;28;20034;-66
2021/11/05 06:37:03;;;;;;;15.40;3.70;;;;;;;;;;4971695;28;20023;-65
2021/11/05 06:39:29;;;;;;;16.75;3.90;;;;;;;;;;4968321;28;20023;-65
2021/11/05 06:41:57;;;;;;;10.73;3.95;;;;;;;;;;4970413;28;20456;-65
2021/11/05 06:44:23;;;;;;;13.40;3.85;;;;;;;;;;4969618;28;20061;-65
2021/11/05 06:46:49;;;;;;;18.33;4.15;;;;;;;;;;4968459;28;20066;-65
2021/11/05 06:49:15;;;;;;;9.15;3.80;;;;;;;;;;4968626;28;20034;-65
2021/11/05 06:51:41;;;;;;;12.07;4.40;;;;;;;;;;4969510;28;20027;-65
2021/11/05 06:54:08;;;;;;;13.10;4.03;;;;;;;;;;4971733;28;20027;-65
2021/11/05 06:56:34;;;;;;;9.57;3.85;;;;;;;;;;4970142;28;20027;-65
2021/11/05 06:59:00;;;;;;;10.68;3.92;;;;;;;;;;4964600;28;20043;-65
2021/11/05 07:01:26;;;;;;;14.35;3.80;;;;;;;;;;4967786;28;20081;-65
2021/11/05 07:03:54;;;;;;;18.33;3.67;;;;;;;;;;4970500;28;20427;-65
2021/11/05 07:06:21;;;;;;;15.85;4.97;;;;;;;;;;4969386;28;20046;-66
2021/11/05 07:08:47;;;;;;;23.33;4.47;;;;;;;;;;4962543;28;20031;-66
2021/11/05 07:11:13;;;;;;;19.77;4.50;;;;;;;;;;4964800;28;20026;-65
2021/11/05 07:13:40;;;;;;;17.45;3.65;;;;;;;;;;4968705;28;20502;-65
2021/11/05 07:16:06;;;;;;;25.15;3.88;;;;;;;;;;4965099;28;20410;-65
2021/11/05 07:18:32;;;;;;;17.35;4.70;;;;;;;;;;4964068;28;20033;-66
2021/11/05 07:21:03;;;;;;;12.30;3.83;;;;;;;;;;4964910;28;20110;-66
2021/11/05 07:23:29;;;;;;;16.30;4.03;;;;;;;;;;4964254;28;20078;-66
2021/11/05 07:25:55;;;;;;;16.77;3.97;;;;;;;;;;4966027;28;20031;-66
2021/11/05 07:28:21;;;;;;;15.57;4.10;;;;;;;;;;4963148;28;20030;-65
2021/11/05 07:30:47;;;;;;;23.05;4.30;;;;;;;;;;4965210;28;20041;-65
2021/11/05 07:33:13;;;;;;;19.80;4.28;;;;;;;;;;4968386;28;20064;-65
2021/11/05 07:35:39;;;;;;;23.70;3.97;;;;;;;;;;4967775;28;20023;-65
2021/11/05 07:38:05;;;;;;;22.17;3.88;;;;;;;;;;4959460;28;20366;-66
2021/11/05 07:40:32;;;;;;;13.23;4.03;;;;;;;;;;4966474;28;20058;-66
2021/11/05 07:42:58;;;;;;;14.80;2.83;;;;;;;;;;4965673;28;20023;-66
2021/11/05 07:45:25;;;;;;;11.77;3.40;;;;;;;;;;4965062;28;20046;-65
2021/11/05 07:47:55;;;;;;;13.70;2.85;;;;;;;;;;4961660;28;20033;-66
2021/11/05 07:50:21;;;;;;;9.38;2.22;;;;;;;;;;4978922;28;20049;-66
2021/11/05 07:52:48;;;;;;;13.98;2.78;;;;;;;;;;4965793;28;20026;-66
2021/11/05 07:55:14;;;;;;;11.70;3.38;;;;;;;;;;4964002;28;20019;-67
2021/11/05 07:57:40;;;;;;;16.67;3.25;;;;;;;;;;4964280;28;20027;-66
2021/11/05 08:00:08;;;;;;;21.27;3.35;;;;;;;;;;4961124;28;20042;-66
2021/11/05 08:02:34;;;;;;;14.05;3.35;;;;;;;;;;4964035;28;20055;-65
2021/11/05 08:05:00;;;;;;;14.05;2.70;;;;;;;;;;4963496;28;20026;-66
2021/11/05 08:07:26;;;;;;;14.65;2.83;;;;;;;;;;4968178;28;20027;-66
2021/11/05 08:09:52;;;;;;;12.63;2.90;;;;;;;;;;4964372;28;20093;-66
2021/11/05 08:12:18;;;;;;;17.10;3.40;;;;;;;;;;4966045;28;20398;-66
2021/11/05 08:14:45;;;;;;;16.55;1.90;;;;;;;;;;4964069;28;20276;-65
2021/11/05 08:17:11;;;;;;;16.30;4.40;;;;;;;;;;4960497;28;20327;-66
2021/11/05 08:19:37;;;;;;;14.55;3.10;;;;;;;;;;4959065;28;20536;-66
2021/11/05 08:22:03;;;;;;;13.50;2.35;;;;;;;;;;4963266;28;20033;-66
2021/11/05 08:24:30;;;;;;;9.60;2.63;;;;;;;;;;4966435;28;20030;-65
2021/11/05 08:26:56;;;;;;;9.90;2.88;;;;;;;;;;4969394;28;20050;-66
2021/11/05 08:29:22;;;;;;;15.48;2.65;;;;;;;;;;4962604;28;20034;-66
2021/11/05 08:31:48;;;;;;;14.00;2.67;;;;;;;;;;4964284;28;20019;-66
2021/11/05 08:34:14;;;;;;;16.60;3.03;;;;;;;;;;4965197;28;20031;-66
2021/11/05 08:36:40;;;;;;;21.65;3.42;;;;;;;;;;4964039;28;20106;-66
2021/11/05 08:39:07;;;;;;;18.02;3.63;;;;;;;;;;4963323;28;20023;-66
2021/11/05 08:41:34;;;;;;;12.88;2.92;;;;;;;;;;4962854;28;20026;-66
2021/11/05 08:44:00;;;;;;;14.82;3.35;;;;;;;;;;4963360;28;20027;-65
2021/11/05 08:46:27;;;;;;;13.63;2.88;;;;;;;;;;4967170;28;20580;-66
2021/11/05 08:48:55;;;;;;;14.55;3.50;;;;;;;;;;4963670;28;20248;-66
2021/11/05 08:51:22;;;;;;;15.93;3.38;;;;;;;;;;4965668;28;20445;-65
2021/11/05 08:53:48;;;;;;;15.00;3.53;;;;;;;;;;4965383;28;20175;-65
2021/11/05 08:56:14;;;;;;;11.88;3.10;;;;;;;;;;4967941;28;20054;-65
2021/11/05 08:58:40;;;;;;;12.27;2.83;;;;;;;;;;4964262;28;20122;-66
2021/11/05 09:01:07;;;;;;;13.13;2.75;;;;;;;;;;4967424;28;20023;-66
2021/11/05 09:03:33;;;;;;;18.40;3.72;;;;;;;;;;4967991;28;20046;-66
2021/11/05 09:06:00;;;;;;;12.30;2.97;;;;;;;;;;4966304;28;20246;-66
2021/11/05 09:08:30;;;;;;;12.35;3.63;;;;;;;;;;4964757;28;20040;-65
2021/11/05 09:10:57;;;;;;;14.90;3.60;;;;;;;;;;4968356;28;20019;-66
2021/11/05 09:13:23;;;;;;;19.73;3.72;;;;;;;;;;4965109;28;20533;-66
2021/11/05 09:15:49;;;;;;;14.20;3.22;;;;;;;;;;4969964;28;20038;-66
2021/11/05 09:18:17;;;;;;;17.95;3.97;;;;;;;;;;4963664;28;20019;-66
2021/11/05 09:20:43;;;;;;;18.48;3.70;;;;;;;;;;4967344;28;20037;-66
2021/11/05 09:23:09;;;;;;;15.52;3.25;;;;;;;;;;4967151;28;20490;-66
2021/11/05 09:25:35;;;;;;;13.88;3.40;;;;;;;;;;4970245;28;20505;-66
2021/11/05 09:28:01;;;;;;;13.07;3.38;;;;;;;;;;4963038;28;20124;-66
2021/11/05 09:30:28;;;;;;;21.08;5.13;;;;;;;;;;4964404;28;20033;-66
2021/11/05 09:32:54;;;;;;;18.67;3.72;;;;;;;;;;4961989;28;20287;-66
2021/11/05 09:35:21;;;;;;;14.45;4.00;;;;;;;;;;4967206;28;20042;-65
2021/11/05 09:37:50;;;;;;;15.27;4.25;;;;;;;;;;4960943;28;20049;-66
2021/11/05 09:40:18;;;;;;;25.20;4.20;;;;;;;;;;4964708;28;20117;-66
2021/11/05 09:42:45;;;;;;;20.38;4.93;;;;;;;;;;4961311;28;20023;-66
2021/11/05 09:45:12;;;;;;;11.85;4.63;;;;;;;;;;4975612;28;20039;-66
2021/11/05 09:47:42;;;;;;;19.77;4.57;;;;;;;;;;4960932;28;20030;-66
2021/11/05 09:50:09;;;;;;;14.88;4.60;;;;;;;;;;4958725;28;20023;-66
2021/11/05 09:52:35;;;;;;;13.75;4.30;;;;;;;;;;4964316;28;20027;-66
2021/11/05 09:55:03;;;;;;;15.23;5.07;;;;;;;;;;4967672;28;20033;-66
2021/11/05 09:57:29;;;;;;;16.60;4.07;;;;;;;;;;4965658;28;20027;-66
2021/11/05 09:59:56;;;;;;;18.73;4.68;;;;;;;;;;4959078;28;20055;-66
2021/11/05 10:02:24;;;;;;;15.40;5.15;;;;;;;;;;4965014;28;20069;-66
2021/11/05 10:04:51;;;;;;;17.67;4.32;;;;;;;;;;4964277;28;20063;-66
2021/11/05 10:07:17;;;;;;;20.23;4.75;;;;;;;;;;4963754;28;20035;-66
2021/11/05 10:09:51;;;;;;;11.77;4.78;;;;;;;;;;4964145;28;20045;-66
2021/11/05 10:12:21;;;;;;;16.15;4.00;;;;;;;;;;4964918;28;20027;-66
2021/11/05 10:14:53;;;;;;;9.90;4.97;;;;;;;;;;4963115;28;20039;-66
2021/11/05 10:17:21;;;;;;;15.35;6.40;;;;;;;;;;4965823;28;20110;-65
2021/11/05 10:19:57;;;;;;;18.92;6.20;;;;;;;;;;4965809;28;20023;-66
2021/11/05 10:22:49;;;;;;;11.75;5.80;;;;;;;;;;4965403;28;20038;-65
2021/11/05 10:25:24;;;;;;;14.88;5.25;;;;;;;;;;4966978;28;20030;-66
2021/11/05 10:28:06;;;;;;;13.25;5.45;;;;;;;;;;4965944;28;20062;-66
2021/11/05 10:30:32;;;;;;;;;;;;;;;;;;4966489;28;20026;-66
2021/11/05 10:33:01;;;;;;;15.00;6.43;;;;;;;;;;4963212;28;20007;-66
2021/11/05 10:35:27;;;;;;;20.80;5.50;;;;;;;;;;4965896;28;20035;-66
2021/11/05 10:38:00;;;;;;;20.60;6.50;;;;;;;;;;4961482;28;20517;-66
2021/11/05 10:40:30;;;;;;;23.25;6.72;;;;;;;;;;4967326;28;20110;-66
2021/11/05 10:42:56;;;;;;;22.33;7.18;;;;;;;;;;4963847;28;20097;-66
2021/11/05 10:45:25;;;;;;;15.77;6.78;;;;;;;;;;4963759;28;20049;-66
2021/11/05 10:47:54;;;;;;;25.27;7.13;;;;;;;;;;4964325;28;20035;-66
2021/11/05 10:50:21;;;;;;;18.27;6.97;;;;;;;;;;4966344;28;20054;-66
2021/11/05 10:52:58;;;;;;;19.60;7.00;;;;;;;;;;4965957;28;20082;-66
2021/11/05 10:55:24;;;;;;;21.52;7.72;;;;;;;;;;4963269;28;20046;-66
2021/11/05 10:57:51;;;;;;;21.80;7.63;;;;;;;;;;4955538;28;20031;-66
2021/11/05 11:00:23;;;;;;;21.77;7.47;;;;;;;;;;4945945;28;20051;-66
2021/11/05 11:02:49;;;;;;;22.25;8.55;;;;;;;;;;4955147;28;20030;-66
2021/11/05 11:05:35;;;;;;;24.95;8.05;;;;;;;;;;4963371;28;20023;-66
2021/11/05 11:08:02;;;;;;;21.83;8.02;;;;;;;;;;4961910;28;20390;-66
2021/11/05 11:10:33;;;;;;;20.20;7.20;;;;;;;;;;4963891;28;20560;-66
2021/11/05 11:12:59;;;;;;;17.05;7.03;;;;;;;;;;4965388;28;20074;-65
2021/11/05 11:15:33;;;;;;;15.93;7.75;;;;;;;;;;4965332;28;20042;-66
2021/11/05 11:17:59;;;;;;;19.02;6.30;;;;;;;;;;4964019;28;20493;-66
2021/11/05 11:20:28;;;;;;;13.68;6.00;;;;;;;;;;4964096;28;20050;-66
2021/11/05 11:22:54;;;;;;;23.05;6.03;;;;;;;;;;4963103;28;20382;-66
2021/11/05 11:25:21;;;;;;;25.52;6.28;;;;;;;;;;4965593;28;20089;-66
2021/11/05 11:27:47;;;;;;;21.52;6.32;;;;;;;;;;4960170;28;20039;-66
2021/11/05 11:30:13;;;;;;;29.13;7.75;;;;;;;;;;4963439;28;20026;-66
2021/11/05 11:32:39;;;;;;;20.40;7.15;;;;;;;;;;4965067;28;20163;-66
2021/11/05 11:35:05;;;;;;;21.40;6.80;;;;;;;;;;4962486;28;20184;-66
2021/11/05 11:37:34;;;;;;;18.33;5.88;;;;;;;;;;4965169;28;20046;-66
2021/11/05 11:40:00;;;;;;;19.70;5.93;;;;;;;;;;4962455;28;20023;-66
2021/11/05 11:42:26;;;;;;;23.80;6.70;;;;;;;;;;4963417;28;20674;-66
2021/11/05 11:44:52;;;;;;;18.52;6.75;;;;;;;;;;4964334;28;20451;-66
2021/11/05 11:47:18;;;;;;;17.23;7.18;;;;;;;;;;4964724;28;20113;-66
2021/11/05 11:49:49;;;;;;;19.33;6.22;;;;;;;;;;4960192;28;20576;-66
2021/11/05 11:52:15;;;;;;;18.55;6.72;;;;;;;;;;4967693;28;20025;-65
2021/11/05 11:54:42;;;;;;;13.13;6.55;;;;;;;;;;4965562;28;20031;-66
2021/11/05 11:57:16;;;;;;;24.25;7.70;;;;;;;;;;4966970;28;20031;-66
2021/11/05 11:59:43;;;;;;;17.35;6.68;;;;;;;;;;4965363;28;20043;-66
2021/11/05 12:02:28;;;;;;;21.88;6.90;;;;;;;;;;4970768;28;20077;-66
2021/11/05 12:04:54;;;;;;;25.73;7.32;;;;;;;;;;4968547;28;20933;-66
2021/11/05 12:07:20;;;;;;;26.35;9.45;;;;;;;;;;4970194;28;20019;-65
2021/11/05 12:09:46;;;;;;;16.20;6.55;;;;;;;;;;4964405;28;20069;-66
2021/11/05 12:12:21;;;;;;;17.92;6.90;;;;;;;;;;4968345;28;20417;-66
2021/11/05 12:15:02;;;;;;;18.20;7.22;;;;;;;;;;4966143;28;20634;-65
2021/11/05 12:17:28;;;;;;;22.70;8.18;;;;;;;;;;4970173;28;20453;-66
2021/11/05 12:20:04;;;;;;;17.55;7.38;;;;;;;;;;4967698;28;20113;-66
2021/11/05 12:22:31;;;;;;;15.23;7.80;;;;;;;;;;4971962;28;20573;-66
2021/11/05 12:25:16;;;;;;;15.70;7.32;;;;;;;;;;4974047;28;20019;-66
2021/11/05 12:27:42;;;;;;;11.90;7.03;;;;;;;;;;4971317;28;20041;-66
2021/11/05 12:30:10;;;;;;;25.48;7.55;;;;;;;;;;4971940;28;20497;-66
2021/11/05 12:32:37;;;;;;;16.02;7.10;;;;;;;;;;4972334;28;20103;-66
2021/11/05 12:35:05;;;;;;;16.77;7.50;;;;;;;;;;4971358;28;20328;-66
2021/11/05 12:37:34;;;;;;;21.15;7.00;;;;;;;;;;4972312;28;20026;-66
2021/11/05 12:40:19;;;;;;;17.00;7.05;;;;;;;;;;4967157;28;20033;-66
2021/11/05 12:42:45;;;;;;;16.95;7.40;;;;;;;;;;4971677;28;20397;-66
2021/11/05 12:45:11;;;;;;;16.67;6.88;;;;;;;;;;4967113;28;20023;-66
2021/11/05 12:47:46;;;;;;;15.30;7.07;;;;;;;;;;4969933;28;20269;-66
2021/11/05 12:50:14;;;;;;;15.40;6.80;;;;;;;;;;4970403;28;20034;-66
2021/11/05 12:52:40;;;;;;;19.02;7.22;;;;;;;;;;4971155;28;20577;-66
2021/11/05 12:55:06;;;;;;;20.00;8.27;;;;;;;;;;4971825;28;20041;-66
2021/11/05 12:57:32;;;;;;;23.13;7.65;;;;;;;;;;4970181;28;20417;-66
2021/11/05 12:59:59;;;;;;;18.88;7.47;;;;;;;;;;4966429;28;20051;-66
2021/11/05 13:02:25;;;;;;;19.20;7.70;;;;;;;;;;4972408;28;20027;-66
2021/11/05 13:04:52;;;;;;;19.30;7.97;;;;;;;;;;4970555;28;20597;-66
2021/11/05 13:07:19;;;;;;;19.60;7.45;;;;;;;;;;4973337;28;20518;-66
2021/11/05 13:09:47;;;;;;;15.25;7.03;;;;;;;;;;4969438;28;20054;-66
2021/11/05 13:12:14;;;;;;;30.33;8.18;;;;;;;;;;4973355;28;20035;-66
2021/11/05 13:14:41;;;;;;;22.15;7.40;;;;;;;;;;4970741;28;20035;-66
2021/11/05 13:17:20;;;;;;;20.23;7.75;;;;;;;;;;4970720;28;20027;-66
2021/11/05 13:19:57;;;;;;;15.13;7.80;;;;;;;;;;4966582;28;20074;-66
2021/11/05 13:22:25;;;;;;;16.50;7.95;;;;;;;;;;4971412;28;20205;-66
2021/11/05 13:24:51;;;;;;;26.33;7.45;;;;;;;;;;4971271;28;20023;-67
2021/11/05 13:27:17;;;;;;;18.55;7.43;;;;;;;;;;4973331;28;20053;-67
2021/11/05 13:29:47;;;;;;;16.02;7.07;;;;;;;;;;4966977;28;20069;-67
2021/11/05 13:32:14;;;;;;;10.13;7.30;;;;;;;;;;4971207;28;20512;-66
2021/11/05 13:34:41;;;;;;;17.02;7.40;;;;;;;;;;4970005;28;20440;-67
2021/11/05 13:37:07;;;;;;;15.45;7.20;;;;;;;;;;4971112;28;20031;-66
2021/11/05 13:39:34;;;;;;;13.63;7.68;;;;;;;;;;4968278;28;20031;-66
2021/11/05 13:42:08;;;;;;;16.27;6.72;;;;;;;;;;4970694;28;20049;-66
2021/11/05 13:44:34;;;;;;;15.95;7.03;;;;;;;;;;4971563;28;20051;-66
2021/11/05 13:47:11;;;;;;;14.57;7.28;;;;;;;;;;4970184;28;20046;-66
2021/11/05 13:49:38;;;;;;;19.45;6.95;;;;;;;;;;4966885;28;20401;-66
2021/11/05 13:52:06;;;;;;;9.75;7.13;;;;;;;;;;4972350;28;20042;-66
2021/11/05 13:54:33;;;;;;;8.35;5.70;;;;;;;;;;4971817;28;20043;-66
2021/11/05 13:57:00;;;;;;;13.95;6.05;;;;;;;;;;4971334;28;20023;-67
2021/11/05 13:59:31;;;;;;;12.57;5.50;;;;;;;;;;4967024;28;20112;-66
2021/11/05 14:01:58;;;;;;;14.30;6.65;;;;;;;;;;4970739;28;20065;-67
2021/11/05 14:04:25;;;;;;;18.30;6.60;;;;;;;;;;4967410;28;20026;-67
2021/11/05 14:06:54;;;;;;;12.18;6.30;;;;;;;;;;4968417;28;20608;-66
2021/11/05 14:09:31;;;;;;;10.82;6.15;;;;;;;;;;4965316;28;20058;-66
2021/11/05 14:11:58;;;;;;;11.68;6.05;;;;;;;;;;4969905;28;20035;-67
2021/11/05 14:14:25;;;;;;;10.07;6.00;;;;;;;;;;4971240;28;20027;-67
2021/11/05 14:16:53;;;;;;;13.23;5.95;;;;;;;;;;4984446;28;20029;-66
2021/11/05 14:19:21;;;;;;;16.63;5.85;;;;;;;;;;4967526;28;20027;-67
2021/11/05 14:21:57;;;;;;;13.02;6.20;;;;;;;;;;4968761;28;20545;-67
2021/11/05 14:24:24;;;;;;;12.57;5.80;;;;;;;;;;4971123;28;20134;-67
2021/11/05 14:27:04;;;;;;;16.52;6.20;;;;;;;;;;4970869;28;20106;-67
2021/11/05 14:29:33;;;;;;;12.18;6.25;;;;;;;;;;4966242;28;20609;-67
2021/11/05 14:32:02;;;;;;;8.50;5.22;;;;;;;;;;4971097;28;20026;-67
2021/11/05 14:34:30;;;;;;;10.77;6.03;;;;;;;;;;4969360;28;20038;-67